»·PEaware :: SWA3585 KSNA-KSFO

SWA3585 :: KSNA-KSFO

FLIGHT INFORMATION

Flight Status: Arrived
Operator:
Southwest Airlines
More flights by this operator :: More flights under this callsign
Pilot: Matthew M. (8235)
Aircraft: BOEING 737-800
(B738)
More flights by this aircraft type
Origin: KSNA John Wayne-Orange Co
United States
Destination: KSFO San Francisco Intl
United States
More flights between these airports :: More routes between these airports
Route: HHERO2 IKAYE STOKD SERFR SERFR2
File this flight plan on PilotEdge
Remarks: PBN / A1B1C1D1S1S2 DOF / 180108 REG / N8320J EET / KZOA0032 OPR / SWA PER / C
Altitude:
(Current/Filed)
40,000ft
Speed:
(Current/Filed)
433kts
Departed: 07-Jan-18 05:33 PM
Arrived: 07-Jan-18 06:34 PM
Distance/Time
Traveled:
323nm/1:01
Distance/Time
To Go:
Arrived

Flight Plot

Page will automatically refresh every two minutes.

Flight plan parsing failed; only flown route is shown


Map Options




Map Legend


Flown Route
Filed Route
Departure Airport
Arrival Airport
Navaid (VOR, NDB)
Fix

Horizontal Profiles

Position Reports

Time Latitude Longitude Heading Altitude Ground
Speed
07-Jan-18 17:21 33.676836 -117.863964 118 45ft 0kts
07-Jan-18 17:22 33.676836 -117.863964 118 45ft 0kts
07-Jan-18 17:23 33.676836 -117.863964 118 45ft 0kts
07-Jan-18 17:24 33.676836 -117.863964 118 45ft 0kts
07-Jan-18 17:25 33.676836 -117.863964 118 45ft 0kts
07-Jan-18 17:26 33.676836 -117.863964 118 45ft 0kts
07-Jan-18 17:27 33.676836 -117.863964 118 45ft 0kts
07-Jan-18 17:28 33.676836 -117.863964 118 45ft 0kts
07-Jan-18 17:29 33.676836 -117.863964 118 45ft 0kts
07-Jan-18 17:30 33.676836 -117.863965 118 45ft 0kts
07-Jan-18 17:31 33.677022 -117.864462 84 46ft 2kts
07-Jan-18 17:32 33.676830 -117.864768 27 47ft 0kts
07-Jan-18 17:33 33.676830 -117.864767 27 47ft 0kts
07-Jan-18 17:34 33.676830 -117.864767 27 47ft 0kts
07-Jan-18 17:35 33.677358 -117.864428 28 46ft 6kts
07-Jan-18 17:36 33.680320 -117.862686 354 44ft 9kts
07-Jan-18 17:37 33.680685 -117.863156 301 44ft 0kts
07-Jan-18 17:38 33.681318 -117.864535 294 44ft 11kts
07-Jan-18 17:39 33.669392 -117.872797 207 338ft 172kts
07-Jan-18 17:40 33.616816 -117.892140 189 3501ft 254kts
07-Jan-18 17:41 33.550705 -117.922980 222 7960ft 278kts
07-Jan-18 17:42 33.492266 -117.988818 224 11852ft 313kts
07-Jan-18 17:43 33.444308 -118.075873 240 16733ft 323kts
07-Jan-18 17:44 33.417078 -118.175615 274 21155ft 337kts
07-Jan-18 17:45 33.450558 -118.276839 310 24881ft 370kts
07-Jan-18 17:46 33.530472 -118.355786 305 28517ft 372kts
07-Jan-18 17:47 33.598361 -118.444749 303 32144ft 359kts
07-Jan-18 17:48 33.664352 -118.531368 302 35056ft 351kts
07-Jan-18 17:49 33.729331 -118.616409 302 37352ft 349kts
07-Jan-18 17:50 33.793226 -118.699797 302 39279ft 348kts
07-Jan-18 17:51 33.859610 -118.786244 303 40098ft 371kts
07-Jan-18 17:52 33.933875 -118.882439 304 40096ft 415kts
07-Jan-18 17:53 34.013464 -118.985103 304 40086ft 425kts
07-Jan-18 17:54 34.093608 -119.088226 304 40085ft 428kts
07-Jan-18 17:55 34.170043 -119.186241 305 40070ft 428kts
07-Jan-18 17:56 34.250687 -119.289283 305 40067ft 428kts
07-Jan-18 17:57 34.332324 -119.393208 305 40068ft 429kts
07-Jan-18 17:58 34.413739 -119.496465 305 40074ft 429kts
07-Jan-18 17:59 34.494377 -119.598357 305 40075ft 429kts
07-Jan-18 18:00 34.574888 -119.699743 305 40086ft 428kts
07-Jan-18 18:01 34.656730 -119.802404 305 40087ft 428kts
07-Jan-18 18:02 34.739033 -119.905252 305 40091ft 429kts
07-Jan-18 18:03 34.821935 -120.008452 305 40094ft 428kts
07-Jan-18 18:04 34.905071 -120.111378 305 40102ft 428kts
07-Jan-18 18:05 34.987217 -120.212693 305 40108ft 419kts
07-Jan-18 18:06 35.067891 -120.311917 304 40112ft 412kts
07-Jan-18 18:07 35.144819 -120.406257 304 40099ft 412kts
07-Jan-18 18:08 35.225717 -120.505136 305 40098ft 414kts
07-Jan-18 18:09 35.307019 -120.604209 305 40097ft 414kts
07-Jan-18 18:10 35.387780 -120.702365 305 40109ft 414kts
07-Jan-18 18:11 35.469373 -120.801197 304 40102ft 413kts
07-Jan-18 18:12 35.561083 -120.890645 312 40095ft 424kts
07-Jan-18 18:13 35.654239 -120.977805 312 40093ft 423kts
07-Jan-18 18:14 35.747188 -121.064584 311 40057ft 397kts
07-Jan-18 18:15 35.829897 -121.141943 310 38656ft 363kts
07-Jan-18 18:16 35.909355 -121.216307 310 36894ft 362kts
07-Jan-18 18:17 35.989701 -121.291302 311 35098ft 364kts
07-Jan-18 18:18 36.071047 -121.366669 314 33315ft 373kts
07-Jan-18 18:19 36.155956 -121.433264 317 31499ft 381kts
07-Jan-18 18:20 36.245130 -121.503185 318 29611ft 386kts
07-Jan-18 18:21 36.336020 -121.574414 319 27695ft 391kts
07-Jan-18 18:22 36.427990 -121.646464 320 25757ft 396kts
07-Jan-18 18:23 36.519464 -121.718226 319 23826ft 385kts
07-Jan-18 18:24 36.608293 -121.788638 320 21941ft 375kts
07-Jan-18 18:25 36.694535 -121.856987 321 20115ft 365kts
07-Jan-18 18:26 36.786174 -121.906716 342 18278ft 368kts
07-Jan-18 18:27 36.883723 -121.933923 343 16406ft 355kts
07-Jan-18 18:28 36.976972 -121.962736 338 14444ft 343kts
07-Jan-18 18:29 37.065333 -121.997452 339 12561ft 330kts
07-Jan-18 18:30 37.147953 -122.029823 340 10789ft 324kts
07-Jan-18 18:31 37.229950 -122.061907 340 9027ft 299kts
07-Jan-18 18:32 37.306173 -122.091763 340 7391ft 280kts
07-Jan-18 18:33 37.376854 -122.119497 341 5857ft 257kts
07-Jan-18 18:34 37.442119 -122.145175 342 4470ft 243kts
07-Jan-18 18:35 37.505532 -122.164961 347 3343ft 236kts
07-Jan-18 18:36 37.552012 -122.216701 298 2286ft 224kts
07-Jan-18 18:37 37.578027 -122.278304 298 1442ft 178kts
07-Jan-18 18:38 37.598216 -122.326272 299 609ft 133kts
07-Jan-18 18:39 37.614416 -122.364877 299 13ft 119kts
07-Jan-18 18:40 37.618927 -122.378710 257 28ft 15kts
07-Jan-18 18:41 37.615151 -122.380588 207 31ft 12kts
07-Jan-18 18:42 37.611795 -122.382793 204 31ft 12kts
07-Jan-18 18:43 37.611121 -122.385821 299 31ft 14kts
07-Jan-18 18:44 37.612783 -122.386247 151 31ft 5kts

Navigation Log

Ident Type
Flight plan parsing failed, navigation log unavailable